createdAt,value
2018-07-24T00:00:34.605Z,100068.46
2018-07-24T00:03:05.573Z,100003.88
2018-07-24T00:05:36.526Z,100066.38
2018-07-24T00:08:07.455Z,100060.83
2018-07-24T00:10:38.525Z,100061.28
2018-07-24T00:13:09.460Z,100058.73
2018-07-24T00:15:40.402Z,100059.37
2018-07-24T00:18:11.760Z,100063.66
2018-07-24T00:20:42.570Z,100060.81
2018-07-24T00:23:13.499Z,100066.66
2018-07-24T00:25:44.388Z,100062.02
2018-07-24T00:28:15.668Z,100063.57
2018-07-24T00:30:46.546Z,100059.67
2018-07-24T00:33:17.378Z,100056.32
2018-07-24T00:35:48.329Z,100054.58
2018-07-24T00:38:19.641Z,100040.56
2018-07-24T00:40:50.507Z,100049.25
2018-07-24T00:43:22.869Z,100054.78
2018-07-24T00:45:52.831Z,100057.03
2018-07-24T00:48:24.789Z,100055.22
2018-07-24T00:50:54.775Z,100054.86
2018-07-24T00:53:25.641Z,100052.07
2018-07-24T00:55:58.045Z,100049.52
2018-07-24T00:58:27.860Z,100051.62
2018-07-24T01:00:58.595Z,100046.06
2018-07-24T01:03:29.437Z,100048.30
2018-07-24T01:06:00.976Z,100043.66
2018-07-24T01:08:31.593Z,100049.45
2018-07-24T01:11:02.670Z,100044.51
2018-07-24T01:13:34.414Z,99978.58
2018-07-24T01:16:04.838Z,100046.60
2018-07-24T01:18:35.646Z,100048.99
2018-07-24T01:21:06.539Z,100051.39
2018-07-24T01:23:37.388Z,100048.92
2018-07-24T01:26:08.732Z,100046.67
2018-07-24T01:28:39.603Z,100047.92
2018-07-24T01:31:10.399Z,100051.16
2018-07-24T01:33:41.682Z,100042.23
2018-07-24T01:36:13.159Z,100047.02
2018-07-24T01:38:43.761Z,100051.06
2018-07-24T01:41:14.710Z,100053.15
2018-07-24T01:43:45.633Z,100056.58
2018-07-24T01:46:16.452Z,100053.28
2018-07-24T01:48:47.346Z,100048.64
2018-07-24T01:51:18.683Z,100047.53
2018-07-24T01:53:49.559Z,100039.66
2018-07-24T01:56:20.533Z,100044.44
2018-07-24T01:58:51.398Z,100042.78
2018-07-24T02:01:22.673Z,100046.22
2018-07-24T02:03:53.528Z,100049.12
2018-07-24T02:06:24.415Z,100041.71
2018-07-24T02:08:55.650Z,100042.45
2018-07-24T02:11:26.550Z,100051.27
2018-07-24T02:13:57.460Z,100049.52
2018-07-24T02:16:28.364Z,100054.83
2018-07-24T02:18:59.735Z,100047.80
2018-07-24T02:21:30.684Z,100060.95
2018-07-24T02:24:02.500Z,100046.85
2018-07-24T02:26:32.434Z,100066.37
2018-07-24T02:29:03.348Z,100070.23
2018-07-24T02:31:35.059Z,100057.87
2018-07-24T02:34:05.656Z,100068.41
2018-07-24T02:36:36.534Z,100070.72
2018-07-24T02:39:11.439Z,100070.62
2018-07-24T02:41:41.325Z,100071.25
2018-07-24T02:44:11.318Z,100066.60
2018-07-24T02:46:41.190Z,100072.41
2018-07-24T02:49:11.711Z,100053.42
2018-07-24T02:51:42.655Z,100072.54
2018-07-24T02:54:13.551Z,100074.81
2018-07-24T02:56:44.459Z,100079.39
2018-07-24T02:59:15.374Z,100081.47
2018-07-24T03:01:46.720Z,100077.56
2018-07-24T03:04:17.525Z,100076.64
2018-07-24T03:06:50.176Z,100075.19
2018-07-24T03:09:20.002Z,100051.67
2018-07-24T03:11:51.041Z,100078.73
2018-07-24T03:14:21.573Z,100078.12
2018-07-24T03:16:52.487Z,100077.51
2018-07-24T03:19:23.409Z,100077.13
2018-07-24T03:21:54.764Z,100080.52
2018-07-24T03:24:25.631Z,100079.91
2018-07-24T03:26:58.264Z,100084.97
2018-07-24T03:29:28.074Z,100078.37
2018-07-24T03:31:58.926Z,100081.48
2018-07-24T03:34:29.715Z,100078.91
2018-07-24T03:37:00.644Z,100088.44
2018-07-24T03:39:31.523Z,100092.16
2018-07-24T03:42:04.013Z,100089.89
2018-07-24T03:44:34.882Z,100103.03
2018-07-24T03:47:04.737Z,100097.04
2018-07-24T03:49:35.557Z,100100.57
2018-07-24T03:52:06.462Z,100074.75
2018-07-24T03:54:37.420Z,100110.59
2018-07-24T03:57:09.146Z,100110.28
2018-07-24T03:59:39.710Z,100109.77
2018-07-24T04:02:10.756Z,100109.69
2018-07-24T04:04:41.641Z,100112.88
2018-07-24T04:07:12.599Z,100108.84
2018-07-24T04:09:43.449Z,100115.67
2018-07-24T04:12:15.582Z,100104.54
2018-07-24T04:14:45.709Z,100124.25
2018-07-24T04:17:16.862Z,100122.41
2018-07-24T04:19:47.609Z,100122.49
2018-07-24T04:22:18.528Z,100126.11
2018-07-24T04:24:49.397Z,100133.25
2018-07-24T04:27:20.746Z,100134.06
2018-07-24T04:29:53.372Z,100133.03
2018-07-24T04:32:23.479Z,100129.61
2018-07-24T04:34:53.755Z,100131.07
2018-07-24T04:37:24.651Z,100137.16
2018-07-24T04:39:55.548Z,100136.65
2018-07-24T04:42:26.662Z,100138.42
2018-07-24T04:44:57.530Z,100140.69
2018-07-24T04:47:28.495Z,100139.66
2018-07-24T04:49:59.500Z,100134.89
2018-07-24T04:52:30.598Z,100135.09
2018-07-24T04:55:02.378Z,100065.27
2018-07-24T04:57:32.402Z,100127.34
2018-07-24T05:00:03.858Z,100129.49
2018-07-24T05:02:34.790Z,100125.66
2018-07-24T05:05:05.885Z,100128.84
2018-07-24T05:07:36.760Z,100127.38
2018-07-24T05:10:07.693Z,100128.30
2018-07-24T05:12:38.643Z,100127.88
2018-07-24T05:15:09.553Z,100127.98
2018-07-24T05:17:40.442Z,100136.13
2018-07-24T05:20:11.776Z,100141.70
2018-07-24T05:22:43.714Z,100142.01
2018-07-24T05:25:13.639Z,100151.84
2018-07-24T05:27:44.666Z,100153.49
2018-07-24T05:30:15.946Z,100115.27
2018-07-24T05:32:46.254Z,100146.64
2018-07-24T05:35:16.820Z,100155.64
2018-07-24T05:37:49.046Z,100163.59
2018-07-24T05:40:20.392Z,100163.16
2018-07-24T05:42:51.169Z,100168.42
2018-07-24T05:45:21.117Z,100160.03
2018-07-24T05:47:51.950Z,100179.16
2018-07-24T05:50:22.767Z,100139.63
2018-07-24T05:52:53.671Z,100170.41
2018-07-24T05:55:24.713Z,100166.86
2018-07-24T05:57:55.719Z,100165.89
2018-07-24T06:00:26.762Z,100161.66
2018-07-24T06:02:57.694Z,100169.61
2018-07-24T06:05:28.652Z,100166.55
2018-07-24T06:07:59.726Z,100158.58
2018-07-24T06:10:30.745Z,100157.72
2018-07-24T06:13:01.795Z,100160.71
2018-07-24T06:15:32.680Z,100161.19
2018-07-24T06:18:03.925Z,100162.27
2018-07-24T06:20:34.674Z,100133.34
2018-07-24T06:23:06.496Z,100168.95
2018-07-24T06:25:36.437Z,100166.96
2018-07-24T06:28:07.880Z,100165.34
2018-07-24T06:30:38.768Z,100169.62
2018-07-24T06:33:08.597Z,100164.55
2018-07-24T06:35:38.608Z,100167.72
2018-07-24T06:38:09.526Z,100164.88
2018-07-24T06:40:40.516Z,100167.41
2018-07-24T06:43:11.452Z,100163.37
2018-07-24T06:45:42.478Z,100171.55
2018-07-24T06:48:13.462Z,100171.78
2018-07-24T06:50:44.880Z,100168.83
2018-07-24T06:53:15.783Z,100163.89
2018-07-24T06:55:46.663Z,100164.51
2018-07-24T06:58:17.655Z,100164.45
2018-07-24T07:00:48.536Z,100166.20
2018-07-24T07:03:19.620Z,100157.72
2018-07-24T07:05:50.790Z,100163.27
2018-07-24T07:08:22.094Z,100159.00
2018-07-24T07:10:53.377Z,100161.55
2018-07-24T07:13:23.817Z,100154.83
2018-07-24T07:15:54.765Z,100157.01
2018-07-24T07:18:25.705Z,100152.80
2018-07-24T07:20:56.596Z,100147.51
2018-07-24T07:23:27.684Z,100142.45
2018-07-24T07:25:58.661Z,100154.45
2018-07-24T07:31:00.129Z,100154.45
2018-07-24T07:33:31.815Z,100148.69
2018-07-24T07:36:02.688Z,100155.86
2018-07-24T07:38:33.686Z,100144.91
2018-07-24T07:41:04.539Z,100145.70
2018-07-24T07:43:35.475Z,100144.58
2018-07-24T07:46:06.539Z,100141.92
2018-07-24T07:48:37.691Z,100138.84
2018-07-24T07:51:08.159Z,100144.63
2018-07-24T07:53:40.957Z,100143.96
2018-07-24T07:56:10.841Z,100137.58
2018-07-24T07:58:41.897Z,100144.20
2018-07-24T08:01:12.623Z,100141.84
2018-07-24T08:03:43.565Z,100138.61
2018-07-24T08:06:14.453Z,100134.63
2018-07-24T08:08:45.497Z,100138.87
2018-07-24T08:11:16.476Z,100133.46
2018-07-24T08:13:47.474Z,100140.15
2018-07-24T08:16:18.795Z,100134.78
2018-07-24T08:18:49.719Z,100133.80
2018-07-24T08:21:20.875Z,100136.20
2018-07-24T08:23:51.592Z,100130.86
2018-07-24T08:26:23.998Z,100123.73
2018-07-24T08:28:54.995Z,100123.09
2018-07-24T08:31:24.897Z,100122.80
2018-07-24T08:33:55.663Z,100122.73
2018-07-24T08:36:26.631Z,100126.23
2018-07-24T08:38:57.549Z,100123.44
2018-07-24T08:41:28.388Z,100120.56
2018-07-24T08:43:59.435Z,100117.45
2018-07-24T08:46:30.754Z,100110.72
2018-07-24T08:49:02.202Z,100110.20
2018-07-24T08:51:33.083Z,100110.95
2018-07-24T08:54:03.755Z,100112.84
2018-07-24T08:56:34.687Z,100111.58
2018-07-24T08:59:04.574Z,100110.35
2018-07-24T09:01:35.350Z,100109.38
2018-07-24T09:04:06.815Z,100112.10
2018-07-24T09:06:37.633Z,100114.09
2018-07-24T09:09:11.017Z,100104.89
2018-07-24T09:11:42.056Z,100097.32
2018-07-24T09:14:13.014Z,100108.13
2018-07-24T09:16:43.434Z,100104.59
2018-07-24T09:19:13.293Z,100100.79
2018-07-24T09:21:43.962Z,100100.09
2018-07-24T09:24:14.714Z,100096.05
2018-07-24T09:26:45.618Z,100102.06
2018-07-24T09:29:16.469Z,100088.81
2018-07-24T09:31:47.211Z,100101.81
2018-07-24T09:34:17.811Z,100103.14
2018-07-24T09:36:48.545Z,100102.03
2018-07-24T09:39:19.536Z,100100.88
2018-07-24T09:41:50.395Z,100098.02
2018-07-24T09:44:21.849Z,100095.07
2018-07-24T09:46:52.670Z,100090.53
2018-07-24T09:49:23.566Z,100076.33
2018-07-24T09:51:55.095Z,100092.60
2018-07-24T09:54:25.719Z,100092.45
2018-07-24T09:56:56.849Z,100087.86
2018-07-24T09:59:27.684Z,100077.55
2018-07-24T10:01:58.699Z,100090.64
2018-07-24T10:04:29.533Z,100092.23
2018-07-24T10:07:00.355Z,100100.27
2018-07-24T10:09:31.438Z,100095.72
2018-07-24T10:12:02.444Z,100088.55
2018-07-24T10:14:33.569Z,100075.84
2018-07-24T10:17:04.326Z,100088.13
2018-07-24T10:19:35.792Z,100095.83
2018-07-24T10:22:06.655Z,100091.72
2018-07-24T10:24:37.466Z,100090.63
2018-07-24T10:27:08.403Z,100093.34
2018-07-24T10:29:38.357Z,100084.59
2018-07-24T10:32:09.076Z,100090.02
2018-07-24T10:34:39.678Z,100086.48
2018-07-24T10:37:10.687Z,100089.18
2018-07-24T10:39:41.485Z,100099.08
2018-07-24T10:42:12.308Z,100088.12
2018-07-24T10:44:43.740Z,100084.22
2018-07-24T10:47:14.507Z,100085.53
2018-07-24T10:49:45.351Z,100084.08
2018-07-24T10:52:16.653Z,100079.33
2018-07-24T10:54:47.590Z,100084.11
2018-07-24T10:57:18.369Z,100083.48
2018-07-24T10:59:49.320Z,100079.53
2018-07-24T11:02:20.960Z,100074.45
2018-07-24T11:04:53.998Z,100077.45
2018-07-24T11:07:24.388Z,100073.92
2018-07-24T11:09:54.325Z,100078.31
2018-07-24T11:12:24.378Z,100076.59
2018-07-24T11:14:55.438Z,100067.70
2018-07-24T11:17:25.513Z,100066.22
2018-07-24T11:19:56.449Z,100072.22
2018-07-24T11:22:27.927Z,100075.75
2018-07-24T11:24:58.572Z,100065.95
2018-07-24T11:27:29.393Z,100072.69
2018-07-24T11:30:00.406Z,100073.28
2018-07-24T11:32:32.018Z,100064.16
2018-07-24T11:35:02.731Z,100058.62
2018-07-24T11:37:33.493Z,100063.82
2018-07-24T11:40:05.150Z,100061.66
2018-07-24T11:42:35.637Z,100059.56
2018-07-24T11:45:07.251Z,100053.52
2018-07-24T11:47:37.085Z,100060.47
2018-07-24T11:50:07.853Z,100049.98
2018-07-24T11:52:38.671Z,100051.41
2018-07-24T11:55:09.539Z,100053.28
2018-07-24T11:57:40.343Z,100051.89
2018-07-24T12:00:11.348Z,100047.00
2018-07-24T12:02:42.681Z,100052.73
2018-07-24T12:05:13.512Z,100049.75
2018-07-24T12:07:44.351Z,100048.34
2018-07-24T12:10:15.445Z,100045.08
2018-07-24T12:12:46.362Z,100040.97
2018-07-24T12:15:17.965Z,100044.60
2018-07-24T12:17:48.587Z,100049.22
2018-07-24T12:20:19.463Z,100052.06
2018-07-24T12:22:50.342Z,100055.22
2018-07-24T12:25:21.420Z,100042.77
2018-07-24T12:27:52.329Z,100035.82
2018-07-24T12:30:23.691Z,100033.37
2018-07-24T12:32:54.452Z,100033.35
2018-07-24T12:35:25.453Z,100035.58
2018-07-24T12:37:56.373Z,100036.37
2018-07-24T12:40:27.349Z,100021.98
2018-07-24T12:42:58.480Z,100024.58
2018-07-24T12:45:29.533Z,100030.75
2018-07-24T12:48:00.353Z,100024.12
2018-07-24T12:50:31.729Z,100023.10
2018-07-24T12:53:01.549Z,100031.70
2018-07-24T12:55:32.724Z,100025.59
2018-07-24T12:58:03.630Z,100028.95
2018-07-24T13:00:34.590Z,100027.18
2018-07-24T13:03:05.510Z,100025.95
2018-07-24T13:05:36.304Z,100026.18
2018-07-24T13:08:07.756Z,100023.31
2018-07-24T13:10:38.669Z,100025.09
2018-07-24T13:13:09.456Z,100022.58
2018-07-24T13:15:40.921Z,100015.48
2018-07-24T13:18:11.561Z,100019.42
2018-07-24T13:20:42.519Z,100020.92
2018-07-24T13:23:13.444Z,100014.08
2018-07-24T13:25:44.386Z,100025.27
2018-07-24T13:28:15.947Z,100016.42
2018-07-24T13:30:46.649Z,100014.45
2018-07-24T13:33:17.354Z,100011.25
2018-07-24T13:35:48.381Z,100010.06
2018-07-24T13:38:19.770Z,100006.25
2018-07-24T13:40:50.712Z,99998.57
2018-07-24T13:43:21.459Z,99992.38
2018-07-24T13:45:52.532Z,100004.50
2018-07-24T13:48:23.390Z,100005.31
2018-07-24T13:50:54.353Z,99992.89
2018-07-24T13:53:25.388Z,100002.77
2018-07-24T13:55:56.429Z,99996.94
2018-07-24T13:58:27.460Z,99992.70
2018-07-24T14:00:58.729Z,99996.17
2018-07-24T14:03:29.911Z,100004.36
2018-07-24T14:06:00.573Z,99997.36
2018-07-24T14:08:31.369Z,100002.34
2018-07-24T14:11:02.385Z,99995.94
2018-07-24T14:13:33.709Z,99996.77
2018-07-24T14:16:04.599Z,99981.18
2018-07-24T14:18:35.398Z,99995.67
2018-07-24T14:21:06.442Z,99994.94
2018-07-24T14:23:37.372Z,99991.36
2018-07-24T14:26:08.471Z,99988.43
2018-07-24T14:28:39.445Z,99987.61
2018-07-24T14:31:10.596Z,99983.89
2018-07-24T14:33:41.509Z,99985.33
2018-07-24T14:36:12.551Z,99982.00
2018-07-24T14:38:43.520Z,99983.44
2018-07-24T14:41:14.337Z,99977.18
2018-07-24T14:43:45.268Z,99974.02
2018-07-24T14:46:16.795Z,99985.69
2018-07-24T14:48:47.640Z,99973.67
2018-07-24T14:51:18.627Z,99974.23
2018-07-24T14:53:49.394Z,99969.92
2018-07-24T14:56:20.830Z,99971.81
2018-07-24T14:58:51.593Z,99967.25
2018-07-24T15:01:22.604Z,99954.94
2018-07-24T15:03:53.327Z,99972.04
2018-07-24T15:06:24.699Z,99969.04
2018-07-24T15:08:55.532Z,99968.61
2018-07-24T15:11:26.373Z,99972.92
2018-07-24T15:13:57.449Z,99968.02
2018-07-24T15:16:28.602Z,99957.45
2018-07-24T15:18:59.396Z,99958.11
2018-07-24T15:21:30.433Z,99957.30
2018-07-24T15:24:01.413Z,99951.33
2018-07-24T15:26:32.421Z,99960.01
2018-07-24T15:29:03.509Z,99963.23
2018-07-24T15:31:34.107Z,99953.88
2018-07-24T15:34:04.917Z,99956.45
2018-07-24T15:36:35.962Z,99957.13
2018-07-24T15:39:09.946Z,99961.36
2018-07-24T15:41:40.304Z,99955.87
2018-07-24T15:44:10.267Z,99944.09
2018-07-24T15:46:40.302Z,99956.13
2018-07-24T15:49:10.404Z,99955.52
2018-07-24T15:51:41.465Z,99954.06
2018-07-24T15:54:12.392Z,99956.33
2018-07-24T15:56:43.657Z,99964.19
2018-07-24T15:59:14.420Z,99958.41
2018-07-24T16:01:45.392Z,99952.34
2018-07-24T16:04:16.360Z,99957.31
2018-07-24T16:06:47.553Z,99953.78
2018-07-24T16:09:18.338Z,99954.95
2018-07-24T16:11:49.376Z,99954.33
2018-07-24T16:14:20.372Z,99952.94
2018-07-24T16:16:51.457Z,99945.59
2018-07-24T16:19:24.070Z,99943.94
2018-07-24T16:21:54.117Z,99956.81
2018-07-24T16:24:24.754Z,99947.63
2018-07-24T16:26:55.526Z,99941.68
2018-07-24T16:29:26.545Z,99943.69
2018-07-24T16:31:57.216Z,99938.00
2018-07-24T16:34:29.569Z,99946.47
2018-07-24T16:36:59.460Z,99946.63
2018-07-24T16:39:29.290Z,99939.95
2018-07-24T16:42:00.385Z,99932.58
2018-07-24T16:44:31.510Z,99937.58
2018-07-24T16:47:02.506Z,99943.14
2018-07-24T16:49:33.346Z,99937.42
2018-07-24T16:52:04.677Z,99935.51
2018-07-24T16:54:35.420Z,99935.39
2018-07-24T16:57:06.957Z,99926.53
2018-07-24T16:59:37.638Z,99931.40
2018-07-24T17:02:09.582Z,99931.34
2018-07-24T17:04:39.513Z,99927.23
2018-07-24T17:07:10.360Z,99927.38
2018-07-24T17:09:41.752Z,99923.48
2018-07-24T17:12:12.962Z,99920.14
2018-07-24T17:14:43.621Z,99923.33
2018-07-24T17:17:14.478Z,99922.48
2018-07-24T17:19:45.446Z,99932.63
2018-07-24T17:22:16.321Z,99922.05
2018-07-24T17:24:48.393Z,99927.73
2018-07-24T17:27:18.765Z,99921.77
2018-07-24T17:29:49.633Z,99924.91
2018-07-24T17:32:20.480Z,99921.34
2018-07-24T17:34:51.347Z,99923.72
2018-07-24T17:37:22.982Z,99925.09
2018-07-24T17:39:54.089Z,99924.87
2018-07-24T17:42:24.696Z,99925.94
2018-07-24T17:44:56.601Z,99925.33
2018-07-24T17:47:26.544Z,99926.92
2018-07-24T17:49:57.362Z,99926.93
2018-07-24T17:52:28.846Z,99925.30
2018-07-24T17:54:59.631Z,99940.06
2018-07-24T17:57:30.563Z,99938.97
2018-07-24T18:00:01.418Z,99935.17
2018-07-24T18:02:32.449Z,99936.27
2018-07-24T18:05:03.381Z,99935.23
2018-07-24T18:07:35.019Z,99943.73
2018-07-24T18:10:05.832Z,99943.70
2018-07-24T18:12:36.632Z,99938.00
2018-07-24T18:15:07.470Z,99936.14
2018-07-24T18:17:38.771Z,99937.83
2018-07-24T18:20:09.880Z,99943.62
2018-07-24T18:22:40.662Z,99947.20
2018-07-24T18:25:11.527Z,99947.27
2018-07-24T18:27:42.540Z,99957.91
2018-07-24T18:30:13.683Z,99950.56
2018-07-24T18:32:44.600Z,99955.77
2018-07-24T18:35:15.519Z,99958.50
2018-07-24T18:37:46.402Z,99957.73
2018-07-24T18:40:17.407Z,99964.02
2018-07-24T18:42:48.368Z,99962.94
2018-07-24T18:45:20.606Z,99972.21
2018-07-24T18:47:50.485Z,99953.39
2018-07-24T18:50:21.310Z,99968.13
2018-07-24T18:52:52.974Z,99953.14
2018-07-24T18:55:23.593Z,99969.77
2018-07-24T18:57:54.472Z,99971.09
2018-07-24T19:00:25.348Z,99974.34
2018-07-24T19:02:56.384Z,99969.14
2018-07-24T19:05:27.819Z,99971.55
2018-07-24T19:07:58.974Z,99971.81
2018-07-24T19:10:28.863Z,99972.05
2018-07-24T19:12:59.742Z,99976.36
2018-07-24T19:15:30.672Z,99974.40
2018-07-24T19:18:00.664Z,99981.70
2018-07-24T19:20:32.433Z,99978.90
2018-07-24T19:23:03.464Z,99976.43
2018-07-24T19:25:34.473Z,99979.63
2018-07-24T19:28:05.464Z,99988.52
2018-07-24T19:30:36.889Z,99983.02
2018-07-24T19:33:07.776Z,99987.03
2018-07-24T19:35:38.635Z,99982.36
2018-07-24T19:38:09.625Z,99990.48
2018-07-24T19:40:40.802Z,99986.60
2018-07-24T19:43:12.784Z,99987.88
2018-07-24T19:45:42.614Z,99994.32
2018-07-24T19:48:13.972Z,99990.67
2018-07-24T19:50:44.653Z,99992.75
2018-07-24T19:53:15.560Z,99988.02
2018-07-24T19:55:46.417Z,99991.70
2018-07-24T19:58:17.506Z,99990.23
2018-07-24T20:00:48.297Z,99990.17
2018-07-24T20:03:19.983Z,99988.44
2018-07-24T20:05:50.603Z,99988.91
2018-07-24T20:08:21.487Z,99989.36
2018-07-24T20:10:52.485Z,99989.25
2018-07-24T20:13:23.445Z,99995.17
2018-07-24T20:15:54.727Z,99989.11
2018-07-24T20:18:25.528Z,99990.41
2018-07-24T20:20:56.495Z,99988.70
2018-07-24T20:23:27.440Z,99995.13
2018-07-24T20:25:58.457Z,99990.14
2018-07-24T20:28:28.454Z,99981.47
2018-07-24T20:30:59.730Z,99999.95
2018-07-24T20:33:30.657Z,99997.69
2018-07-24T20:36:01.475Z,99995.45
2018-07-24T20:38:32.420Z,99995.67
2018-07-24T20:41:03.313Z,99994.47
2018-07-24T20:43:34.710Z,99997.10
2018-07-24T20:46:05.833Z,99985.47
2018-07-24T20:48:36.621Z,99998.81
2018-07-24T20:51:07.542Z,99997.36
2018-07-24T20:53:38.542Z,99998.00
2018-07-24T20:56:09.385Z,99997.80
2018-07-24T20:58:40.332Z,99999.33
2018-07-24T21:01:11.805Z,100002.73
2018-07-24T21:03:42.610Z,100000.16
2018-07-24T21:06:13.457Z,99997.07
2018-07-24T21:08:44.523Z,99999.98
2018-07-24T21:11:15.367Z,99997.47
2018-07-24T21:13:46.937Z,100005.50
2018-07-24T21:16:17.536Z,100007.82
2018-07-24T21:18:48.500Z,100001.15
2018-07-24T21:21:19.467Z,100003.44
2018-07-24T21:23:50.413Z,100000.37
2018-07-24T21:26:21.815Z,99999.76
2018-07-24T21:28:52.626Z,100000.53
2018-07-24T21:31:23.249Z,100002.08
2018-07-24T21:33:53.861Z,99999.56
2018-07-24T21:36:24.583Z,100004.39
2018-07-24T21:38:55.733Z,100005.93
2018-07-24T21:41:26.718Z,100004.77
2018-07-24T21:43:57.533Z,100006.53
2018-07-24T21:46:28.466Z,100005.84
2018-07-24T21:48:59.513Z,99999.73
2018-07-24T21:51:31.433Z,100001.53
2018-07-24T21:54:01.334Z,100007.93
2018-07-24T21:56:32.677Z,100010.30
2018-07-24T21:59:03.669Z,100007.89
2018-07-24T22:01:33.546Z,100006.43
2018-07-24T22:04:04.618Z,100007.27
2018-07-24T22:06:35.819Z,100010.39
2018-07-24T22:09:08.764Z,100004.88
2018-07-24T22:11:38.483Z,100008.85
2018-07-24T22:14:08.310Z,100006.11
2018-07-24T22:16:39.561Z,100007.09
2018-07-24T22:19:10.229Z,100005.62
2018-07-24T22:21:41.556Z,100010.61
2018-07-24T22:24:12.667Z,100018.84
2018-07-24T22:26:43.203Z,100012.17
2018-07-24T22:29:14.583Z,100010.53
2018-07-24T22:31:46.014Z,100000.36
2018-07-24T22:34:16.547Z,100010.70
2018-07-24T22:36:48.143Z,100010.88
2018-07-24T22:39:18.527Z,100006.95
2018-07-24T22:41:49.974Z,100002.78
2018-07-24T22:44:21.680Z,100001.59
2018-07-24T22:46:51.418Z,100003.28
2018-07-24T22:49:22.628Z,99999.09
2018-07-24T22:51:53.258Z,100009.77
2018-07-24T22:54:24.532Z,100004.23
2018-07-24T22:56:54.738Z,100004.70
2018-07-24T22:59:25.281Z,100004.31
2018-07-24T23:01:56.604Z,99997.44
2018-07-24T23:04:27.631Z,99998.65
2018-07-24T23:06:58.434Z,99997.75
2018-07-24T23:09:29.752Z,99996.66
2018-07-24T23:12:00.367Z,99997.70
2018-07-24T23:14:31.550Z,99995.81
2018-07-24T23:17:02.855Z,99992.02
2018-07-24T23:19:33.582Z,99998.32
2018-07-24T23:22:04.246Z,99993.84
2018-07-24T23:24:35.597Z,99986.03
2018-07-24T23:27:06.325Z,99960.59
2018-07-24T23:29:37.572Z,99986.94
2018-07-24T23:32:08.900Z,99976.66
2018-07-24T23:34:38.524Z,99978.84
2018-07-24T23:37:09.833Z,99977.41
2018-07-24T23:39:40.727Z,99977.36
2018-07-24T23:42:11.578Z,99975.11
2018-07-24T23:44:42.935Z,99974.22
2018-07-24T23:47:13.730Z,99972.73
2018-07-24T23:49:44.632Z,99979.68
2018-07-24T23:52:15.721Z,99973.91
2018-07-24T23:54:46.540Z,99968.96
2018-07-24T23:57:17.805Z,99969.41
2018-07-24T23:59:48.621Z,99970.91
